L M Clayton Airport
KOLF : now visible

Airfield :











YOU CAN JOIN US ON...

 
LOGIN :

Register | Disclaimer

   EN    FR    IT 

 









Legend :    VFR   Marginal VFR   IFR   Intensive IFR   Very Intensive IFR
Visi :
Ceiling :
>= 8 km
>= 3000ft
5 to 8 km
1000 to 3000 ft
1500m to 5 km
500 to 1000 ft
800 to 1500m
200 to 500 ft
< 800m
< 200 ft
Symbols :   Thunderstorms  Fog  Heavy snow  Heavy precipitations  Wind > 20 kt






- Airport Elevation : 1986 ft


KOLF - L M Clayton

CURRENT METAR :
  • 300253Z AUTO 23008KT 10SM CLR 03/01 A3003 RMK AO2 SLP191 T00330011 51020

EXPIRED METARs :
  • 300153Z AUTO 29004KT 10SM CLR 04/02 A3002 RMK AO2 SLP184 T00440017
  • 300053Z AUTO 25004KT 10SM FEW100 05/02 A2999 RMK AO2 SLP176 T00500017

TAF KOLF
Valid from the 30 at 00:00 until the 31 at 00:00 UTC


292320Z 3000/3024 28007KT P6SM BKN060
FM300600 VRB06KT P6SM BKN040
FM302200 23008KT P6SM SCT150 WS020/24040KT
KZLC FIR / North America



MET'MAP, your aeronautical weather chart ! - Copyright ORBIFLY December 2007 - Disclaimer

ORBIFLY MET'MAP TEAM :

Programming & Development : Alexandra Zaïnal
Concept & original design : Baudouin d'Aumeries
Assistance for programming : Marc-Olivier Méhu
Technical & hardware support : Manuel Goepfert

Contact : metmap@orbifly.com




SOURCES & CREDITS :

   NOAA       Earth
Advisory